createdAt,value
2023-04-27T00:02:49.026Z,57.79
2023-04-27T00:05:51.022Z,57.91
2023-04-27T00:08:52.960Z,57.99
2023-04-27T00:11:55.085Z,58.02
2023-04-27T00:14:56.912Z,58.16
2023-04-27T00:17:58.817Z,58.26
2023-04-27T00:21:00.815Z,58.35
2023-04-27T00:24:02.531Z,58.19
2023-04-27T00:27:04.462Z,58.25
2023-04-27T00:30:07.597Z,58.22
2023-04-27T00:33:09.287Z,58.15
2023-04-27T00:36:11.165Z,58.22
2023-04-27T00:39:13.366Z,58.14
2023-04-27T00:42:18.898Z,58.26
2023-04-27T00:45:20.701Z,58.20
2023-04-27T00:48:22.615Z,58.36
2023-04-27T00:51:27.567Z,58.43
2023-04-27T00:54:31.049Z,58.57
2023-04-27T00:57:33.247Z,58.43
2023-04-27T01:00:39.606Z,58.51
2023-04-27T01:03:41.613Z,58.51
2023-04-27T01:06:43.600Z,58.46
2023-04-27T01:09:46.052Z,58.70
2023-04-27T01:12:47.761Z,58.81
2023-04-27T01:15:49.521Z,58.83
2023-04-27T01:18:51.487Z,58.97
2023-04-27T01:21:53.209Z,59.01
2023-04-27T01:24:54.986Z,58.94
2023-04-27T01:27:56.680Z,58.89
2023-04-27T01:30:58.432Z,59.18
2023-04-27T01:34:00.750Z,59.10
2023-04-27T01:37:02.478Z,59.15
2023-04-27T01:40:06.008Z,59.24
2023-04-27T01:43:07.704Z,59.23
2023-04-27T01:46:12.589Z,59.27
2023-04-27T01:49:14.549Z,59.48
2023-04-27T01:52:16.447Z,59.70
2023-04-27T01:55:18.391Z,59.74
2023-04-27T01:58:20.554Z,59.78
2023-04-27T02:01:23.120Z,60.00
2023-04-27T02:04:25.299Z,60.08
2023-04-27T02:07:27.068Z,60.16
2023-04-27T02:10:28.801Z,60.08
2023-04-27T02:13:30.607Z,60.10
2023-04-27T02:16:32.321Z,60.17
2023-04-27T02:19:34.028Z,60.21
2023-04-27T02:22:36.350Z,60.23
2023-04-27T02:25:38.504Z,60.26
2023-04-27T02:28:40.302Z,59.93
2023-04-27T02:31:42.638Z,60.05
2023-04-27T02:34:44.619Z,60.10
2023-04-27T02:37:46.416Z,60.10
2023-04-27T02:40:54.426Z,60.24
2023-04-27T02:43:56.071Z,60.14
2023-04-27T02:46:59.362Z,60.20
2023-04-27T02:50:01.460Z,60.10
2023-04-27T02:53:03.463Z,60.06
2023-04-27T02:56:05.447Z,60.05
2023-04-27T02:59:07.464Z,60.01
2023-04-27T03:02:09.310Z,60.01
2023-04-27T03:05:11.048Z,60.08
2023-04-27T03:08:12.776Z,60.17
2023-04-27T03:11:14.509Z,60.11
2023-04-27T03:14:16.163Z,60.15
2023-04-27T03:17:17.766Z,60.14
2023-04-27T03:20:22.700Z,60.15
2023-04-27T03:23:24.380Z,60.14
2023-04-27T03:26:27.141Z,60.20
2023-04-27T03:29:28.828Z,60.32
2023-04-27T03:32:30.621Z,60.40
2023-04-27T03:35:32.338Z,60.52
2023-04-27T03:38:34.998Z,60.77
2023-04-27T03:41:36.885Z,60.88
2023-04-27T03:44:39.056Z,60.98
2023-04-27T03:47:40.849Z,60.72
2023-04-27T03:50:43.249Z,61.10
2023-04-27T03:53:45.389Z,61.18
2023-04-27T03:56:47.231Z,61.29
2023-04-27T03:59:49.656Z,61.31
2023-04-27T04:02:51.693Z,61.25
2023-04-27T04:05:53.548Z,61.27
2023-04-27T04:08:55.325Z,61.32
2023-04-27T04:11:57.455Z,61.54
2023-04-27T04:14:59.319Z,61.55
2023-04-27T04:18:01.454Z,61.59
2023-04-27T04:21:03.371Z,61.26
2023-04-27T04:24:05.506Z,61.31
2023-04-27T04:27:07.879Z,61.35
2023-04-27T04:30:10.865Z,61.55
2023-04-27T04:33:13.141Z,61.63
2023-04-27T04:36:15.775Z,61.70
2023-04-27T04:39:21.316Z,61.92
2023-04-27T04:42:23.180Z,61.97
2023-04-27T04:45:25.373Z,62.02
2023-04-27T04:48:27.395Z,61.89
2023-04-27T04:51:30.180Z,62.01
2023-04-27T04:54:31.919Z,62.03
2023-04-27T04:57:33.593Z,62.07
2023-04-27T05:00:35.297Z,61.82
2023-04-27T05:03:37.267Z,61.70
2023-04-27T05:06:39.177Z,61.61
2023-04-27T05:09:40.921Z,61.50
2023-04-27T05:12:43.900Z,61.45
2023-04-27T05:15:46.032Z,61.39
2023-04-27T05:18:47.815Z,61.36
2023-04-27T05:21:49.675Z,61.01
2023-04-27T05:24:51.345Z,60.59
2023-04-27T05:27:53.009Z,60.60
2023-04-27T05:30:54.748Z,60.56
2023-04-27T05:33:56.386Z,60.58
2023-04-27T05:36:58.051Z,60.34
2023-04-27T05:39:59.735Z,59.99
2023-04-27T05:43:04.656Z,59.65
2023-04-27T05:46:06.453Z,59.61
2023-04-27T05:49:08.328Z,59.12
2023-04-27T05:52:10.141Z,58.87
2023-04-27T05:55:11.911Z,58.53
2023-04-27T05:58:13.658Z,58.27
2023-04-27T06:01:15.531Z,58.12
2023-04-27T06:04:17.402Z,57.79
2023-04-27T06:07:19.629Z,57.73
2023-04-27T06:10:21.424Z,57.31
2023-04-27T06:13:23.240Z,57.01
2023-04-27T06:16:25.162Z,57.01
2023-04-27T06:19:27.406Z,57.40
2023-04-27T06:22:29.104Z,56.69
2023-04-27T06:25:30.853Z,56.16
2023-04-27T06:28:33.293Z,55.74
2023-04-27T06:31:35.187Z,55.84
2023-04-27T06:34:36.988Z,55.68
2023-04-27T06:37:38.814Z,55.81
2023-04-27T06:40:40.516Z,55.26
2023-04-27T06:43:42.340Z,55.19
2023-04-27T06:46:44.062Z,54.58
2023-04-27T06:49:46.598Z,54.30
2023-04-27T06:52:49.678Z,54.40
2023-04-27T06:55:51.456Z,54.40
2023-04-27T06:58:53.642Z,53.92
2023-04-27T07:01:55.465Z,53.38
2023-04-27T07:04:58.242Z,53.68
2023-04-27T07:08:03.340Z,53.14
2023-04-27T07:11:07.127Z,52.89
2023-04-27T07:14:10.262Z,52.70
2023-04-27T07:17:12.809Z,51.70
2023-04-27T07:20:18.164Z,51.29
2023-04-27T07:23:20.036Z,51.11
2023-04-27T07:26:24.279Z,51.24
2023-04-27T07:29:27.700Z,50.78
2023-04-27T07:32:30.330Z,50.19
2023-04-27T07:35:33.258Z,49.87
2023-04-27T07:38:35.042Z,50.13
2023-04-27T07:41:37.162Z,49.16
2023-04-27T07:44:40.059Z,48.92
2023-04-27T07:47:41.883Z,48.00
2023-04-27T07:50:43.786Z,47.38
2023-04-27T07:53:47.694Z,46.64
2023-04-27T07:56:49.724Z,46.97
2023-04-27T07:59:51.663Z,46.99
2023-04-27T08:02:54.616Z,47.04
2023-04-27T08:05:56.721Z,46.21
2023-04-27T08:09:00.260Z,46.05
2023-04-27T08:12:02.296Z,46.35
2023-04-27T08:15:07.668Z,46.29
2023-04-27T08:18:10.364Z,45.62
2023-04-27T08:21:12.432Z,45.77
2023-04-27T08:24:14.186Z,46.09
2023-04-27T08:27:16.388Z,46.12
2023-04-27T08:30:19.041Z,45.88
2023-04-27T08:33:20.921Z,45.83
2023-04-27T08:36:25.816Z,45.86
2023-04-27T08:39:27.731Z,45.91
2023-04-27T08:42:30.113Z,45.90
2023-04-27T08:45:32.394Z,45.73
2023-04-27T08:48:34.686Z,45.67
2023-04-27T08:51:36.709Z,45.83
2023-04-27T08:54:38.405Z,46.20
2023-04-27T08:57:40.744Z,45.82
2023-04-27T09:00:45.406Z,45.66
2023-04-27T09:03:47.368Z,45.22
2023-04-27T09:06:49.216Z,45.41
2023-04-27T09:10:02.035Z,45.25
2023-04-27T09:13:03.765Z,45.11
2023-04-27T09:16:06.294Z,44.87
2023-04-27T09:19:08.265Z,45.11
2023-04-27T09:22:13.057Z,49.65
2023-04-27T09:25:28.373Z,46.75
2023-04-27T09:28:31.699Z,45.95
2023-04-27T09:31:35.364Z,45.42
2023-04-27T09:34:39.368Z,44.82
2023-04-27T09:37:41.239Z,44.58
2023-04-27T09:40:43.231Z,44.38
2023-04-27T09:43:46.645Z,44.45
2023-04-27T09:46:48.681Z,43.98
2023-04-27T09:49:51.500Z,44.31
2023-04-27T09:52:54.095Z,44.39
2023-04-27T09:56:01.903Z,44.41
2023-04-27T09:59:09.524Z,44.06
2023-04-27T10:02:24.642Z,43.49
2023-04-27T10:05:43.244Z,43.44
2023-04-27T10:08:45.268Z,43.01
2023-04-27T10:11:47.288Z,42.72
2023-04-27T10:14:49.386Z,42.63
2023-04-27T10:17:58.226Z,42.49
2023-04-27T10:21:12.360Z,42.75
2023-04-27T10:24:14.142Z,42.46
2023-04-27T10:27:23.485Z,42.86
2023-04-27T10:30:31.395Z,43.17
2023-04-27T10:33:43.518Z,42.87
2023-04-27T10:36:45.634Z,42.75
2023-04-27T10:39:49.403Z,43.33
2023-04-27T10:42:51.843Z,43.26
2023-04-27T10:45:54.834Z,43.22
2023-04-27T10:48:57.694Z,43.33
2023-04-27T10:55:23.375Z,42.68
2023-04-27T10:58:29.862Z,42.98
2023-04-27T11:01:37.170Z,42.98
2023-04-27T11:04:40.824Z,43.62
2023-04-27T11:07:47.321Z,43.36
2023-04-27T11:10:52.030Z,43.42
2023-04-27T11:13:55.330Z,43.46
2023-04-27T11:16:58.193Z,43.28
2023-04-27T11:20:00.276Z,43.21
2023-04-27T11:23:02.391Z,42.66
2023-04-27T11:26:18.804Z,43.07
2023-04-27T11:29:20.915Z,42.37
2023-04-27T11:32:24.871Z,42.35
2023-04-27T11:35:34.004Z,42.43
2023-04-27T11:38:35.843Z,42.22
2023-04-27T11:41:38.694Z,41.86
2023-04-27T11:44:40.752Z,41.91
2023-04-27T11:47:46.810Z,41.67
2023-04-27T11:50:49.710Z,41.83
2023-04-27T11:53:52.164Z,41.92
2023-04-27T11:57:04.763Z,42.07
2023-04-27T12:00:10.547Z,42.28
2023-04-27T12:03:15.355Z,42.29
2023-04-27T12:09:29.919Z,41.87
2023-04-27T12:12:32.893Z,41.17
2023-04-27T12:15:34.633Z,41.32
2023-04-27T12:18:36.447Z,41.29
2023-04-27T12:21:39.282Z,41.16
2023-04-27T12:24:41.005Z,40.86
2023-04-27T12:27:43.284Z,40.18
2023-04-27T12:30:45.407Z,40.65
2023-04-27T12:33:48.630Z,40.86
2023-04-27T12:36:50.621Z,40.61
2023-04-27T12:39:52.548Z,41.16
2023-04-27T12:42:54.634Z,41.15
2023-04-27T12:45:56.939Z,41.34
2023-04-27T12:48:58.717Z,41.50
2023-04-27T12:52:00.700Z,41.89
2023-04-27T12:55:02.499Z,42.50
2023-04-27T12:58:04.538Z,42.76
2023-04-27T13:01:13.914Z,43.07
2023-04-27T13:04:19.987Z,43.56
2023-04-27T13:07:22.464Z,43.94
2023-04-27T13:10:24.589Z,44.08
2023-04-27T13:13:26.385Z,43.75
2023-04-27T13:16:28.189Z,43.66
2023-04-27T13:19:30.598Z,43.43
2023-04-27T13:22:32.566Z,43.74
2023-04-27T13:25:34.595Z,43.43
2023-04-27T13:28:36.379Z,43.64
2023-04-27T13:31:38.163Z,43.68
2023-04-27T13:34:40.564Z,43.71
2023-04-27T13:37:42.348Z,43.85
2023-04-27T13:40:44.402Z,43.37
2023-04-27T13:43:46.244Z,43.53
2023-04-27T13:46:47.962Z,43.55
2023-04-27T13:49:49.897Z,43.87
2023-04-27T13:52:51.814Z,43.66
2023-04-27T13:55:54.803Z,43.73
2023-04-27T13:58:56.613Z,43.83
2023-04-27T14:01:58.539Z,44.06
2023-04-27T14:05:00.390Z,43.85
2023-04-27T14:08:02.528Z,43.98
2023-04-27T14:11:05.416Z,44.01
2023-04-27T14:14:07.630Z,44.10
2023-04-27T14:17:09.495Z,44.25
2023-04-27T14:20:19.955Z,44.19
2023-04-27T14:23:21.815Z,44.37
2023-04-27T14:26:23.749Z,44.48
2023-04-27T14:29:26.064Z,44.64
2023-04-27T14:32:27.758Z,44.31
2023-04-27T14:35:29.779Z,44.43
2023-04-27T14:38:33.894Z,44.27
2023-04-27T14:41:36.992Z,44.33
2023-04-27T14:44:38.818Z,44.59
2023-04-27T14:47:40.665Z,44.68
2023-04-27T14:50:42.564Z,44.33
2023-04-27T14:53:44.645Z,44.08
2023-04-27T14:56:47.904Z,44.01
2023-04-27T14:59:51.647Z,43.74
2023-04-27T15:02:54.378Z,43.30
2023-04-27T15:05:56.200Z,43.10
2023-04-27T15:08:58.004Z,43.06
2023-04-27T15:12:01.325Z,43.41
2023-04-27T15:15:03.183Z,43.18
2023-04-27T15:18:05.044Z,42.95
2023-04-27T15:21:06.755Z,42.93
2023-04-27T15:24:10.446Z,42.90
2023-04-27T15:27:19.122Z,42.94
2023-04-27T15:30:22.094Z,43.07
2023-04-27T15:33:36.838Z,43.33
2023-04-27T15:36:38.615Z,43.16
2023-04-27T15:39:41.409Z,42.87
2023-04-27T15:42:43.097Z,42.85
2023-04-27T15:45:45.053Z,42.76
2023-04-27T15:48:48.727Z,42.76
2023-04-27T15:51:50.754Z,42.74
2023-04-27T15:54:55.532Z,43.09
2023-04-27T15:57:57.404Z,43.00
2023-04-27T16:00:59.842Z,42.69
2023-04-27T16:04:03.413Z,42.90
2023-04-27T16:07:08.017Z,42.83
2023-04-27T16:10:11.058Z,43.04
2023-04-27T16:13:12.884Z,43.07
2023-04-27T16:16:14.651Z,43.02
2023-04-27T16:19:18.620Z,42.84
2023-04-27T16:22:21.505Z,42.95
2023-04-27T16:25:23.246Z,43.14
2023-04-27T16:28:24.960Z,43.18
2023-04-27T16:31:27.386Z,43.17
2023-04-27T16:34:29.247Z,43.01
2023-04-27T16:37:32.268Z,43.01
2023-04-27T16:40:34.054Z,43.02
2023-04-27T16:43:36.299Z,43.01
2023-04-27T16:46:38.472Z,42.96
2023-04-27T16:49:44.204Z,42.70
2023-04-27T16:52:49.465Z,42.68
2023-04-27T16:55:51.335Z,42.88
2023-04-27T16:58:53.539Z,43.55
2023-04-27T17:01:55.810Z,43.93
2023-04-27T17:04:58.853Z,43.88
2023-04-27T17:08:01.233Z,44.61
2023-04-27T17:11:09.770Z,44.48
2023-04-27T17:14:13.270Z,44.50
2023-04-27T17:17:15.203Z,44.85
2023-04-27T17:20:17.069Z,45.59
2023-04-27T17:23:19.155Z,45.78
2023-04-27T17:26:21.399Z,45.61
2023-04-27T17:29:23.345Z,45.98
2023-04-27T17:32:28.601Z,46.26
2023-04-27T17:35:30.783Z,46.55
2023-04-27T17:38:32.487Z,46.87
2023-04-27T17:41:36.784Z,47.10
2023-04-27T17:44:40.537Z,47.07
2023-04-27T17:47:42.245Z,47.16
2023-04-27T17:50:43.941Z,47.12
2023-04-27T17:53:45.617Z,46.92
2023-04-27T17:56:47.291Z,47.16
2023-04-27T17:59:49.760Z,47.78
2023-04-27T18:02:51.575Z,48.13
2023-04-27T18:05:53.416Z,48.45
2023-04-27T18:08:55.488Z,48.55
2023-04-27T18:11:58.137Z,48.63
2023-04-27T18:15:03.395Z,48.71
2023-04-27T18:18:06.547Z,48.93
2023-04-27T18:21:08.309Z,48.84
2023-04-27T18:24:10.228Z,48.91
2023-04-27T18:27:12.001Z,48.96
2023-04-27T18:30:13.805Z,49.46
2023-04-27T18:33:17.194Z,49.97
2023-04-27T18:36:19.241Z,50.31
2023-04-27T18:39:21.448Z,50.33
2023-04-27T18:42:23.181Z,50.59
2023-04-27T18:45:24.955Z,50.49
2023-04-27T18:48:26.674Z,50.40
2023-04-27T18:51:28.658Z,50.81
2023-04-27T18:54:30.346Z,50.91
2023-04-27T18:57:33.041Z,51.06
2023-04-27T19:00:37.384Z,51.18
2023-04-27T19:03:39.289Z,51.31
2023-04-27T19:06:41.460Z,51.33
2023-04-27T19:09:43.141Z,51.62
2023-04-27T19:12:44.872Z,52.03
2023-04-27T19:15:46.593Z,52.34
2023-04-27T19:18:48.312Z,52.72
2023-04-27T19:21:50.179Z,53.32
2023-04-27T19:24:51.852Z,53.31
2023-04-27T19:27:54.898Z,53.09
2023-04-27T19:30:56.622Z,53.03
2023-04-27T19:34:04.128Z,53.12
2023-04-27T19:37:06.248Z,53.34
2023-04-27T19:40:08.708Z,53.70
2023-04-27T19:43:11.319Z,53.98
2023-04-27T19:46:13.004Z,54.10
2023-04-27T19:49:15.339Z,54.55
2023-04-27T19:52:17.274Z,54.50
2023-04-27T19:55:18.956Z,54.43
2023-04-27T19:58:20.966Z,54.78
2023-04-27T20:01:22.816Z,55.28
2023-04-27T20:04:25.093Z,55.13
2023-04-27T20:07:27.054Z,55.27
2023-04-27T20:10:28.761Z,55.46
2023-04-27T20:13:30.875Z,55.69
2023-04-27T20:16:32.737Z,55.95
2023-04-27T20:19:34.401Z,56.23
2023-04-27T20:22:37.140Z,56.24
2023-04-27T20:25:38.774Z,56.25
2023-04-27T20:28:40.529Z,56.12
2023-04-27T20:31:42.324Z,56.26
2023-04-27T20:34:44.056Z,56.42
2023-04-27T20:37:46.522Z,56.65
2023-04-27T20:40:49.627Z,56.66
2023-04-27T20:43:51.774Z,56.62
2023-04-27T20:46:54.600Z,56.46
2023-04-27T20:49:56.412Z,56.62
2023-04-27T20:52:58.109Z,56.58
2023-04-27T20:55:59.775Z,56.69
2023-04-27T20:59:01.573Z,56.40
2023-04-27T21:02:03.325Z,56.83
2023-04-27T21:05:05.237Z,56.92
2023-04-27T21:08:06.972Z,56.78
2023-04-27T21:11:09.010Z,56.78
2023-04-27T21:14:10.803Z,56.85
2023-04-27T21:17:14.549Z,56.94
2023-04-27T21:20:16.491Z,57.23
2023-04-27T21:23:19.144Z,57.51
2023-04-27T21:26:20.857Z,57.61
2023-04-27T21:29:22.825Z,57.79
2023-04-27T21:32:24.556Z,58.02
2023-04-27T21:35:26.454Z,58.23
2023-04-27T21:38:28.183Z,58.42
2023-04-27T21:41:29.817Z,58.63
2023-04-27T21:44:31.557Z,58.62
2023-04-27T21:47:33.308Z,58.98
2023-04-27T21:50:35.186Z,59.27
2023-04-27T21:53:37.010Z,59.33
2023-04-27T21:56:38.757Z,59.33
2023-04-27T21:59:40.622Z,59.11
2023-04-27T22:02:42.748Z,59.20
2023-04-27T22:05:44.711Z,59.29
2023-04-27T22:08:46.617Z,58.85
2023-04-27T22:11:48.257Z,59.44
2023-04-27T22:14:49.962Z,59.69
2023-04-27T22:17:53.139Z,59.77
2023-04-27T22:20:54.916Z,59.91
2023-04-27T22:23:56.857Z,59.99
2023-04-27T22:26:58.607Z,60.14
2023-04-27T22:30:00.377Z,60.11
2023-04-27T22:33:02.526Z,60.19
2023-04-27T22:36:05.231Z,60.16
2023-04-27T22:39:07.545Z,60.36
2023-04-27T22:42:09.160Z,60.29
2023-04-27T22:45:11.315Z,60.01
2023-04-27T22:48:12.991Z,60.51
2023-04-27T22:51:14.869Z,60.42
2023-04-27T22:54:16.733Z,60.58
2023-04-27T22:57:18.576Z,60.54
2023-04-27T23:00:20.496Z,60.47
2023-04-27T23:03:22.433Z,60.64
2023-04-27T23:06:24.320Z,60.53
2023-04-27T23:09:26.390Z,60.64
2023-04-27T23:12:29.583Z,60.72
2023-04-27T23:15:31.324Z,60.97
2023-04-27T23:18:33.265Z,61.05
2023-04-27T23:21:35.012Z,61.03
2023-04-27T23:24:36.708Z,61.11
2023-04-27T23:27:38.539Z,61.12
2023-04-27T23:30:40.364Z,61.23
2023-04-27T23:33:42.075Z,61.32
2023-04-27T23:36:44.013Z,61.38
2023-04-27T23:39:45.833Z,61.36
2023-04-27T23:42:48.560Z,61.28
2023-04-27T23:45:52.149Z,61.27
2023-04-27T23:48:53.906Z,61.20
2023-04-27T23:51:55.672Z,61.35
2023-04-27T23:54:57.718Z,61.45
2023-04-27T23:57:59.400Z,61.60
